sensor_id;sensor_type;location;lat;lon;timestamp;temperature;humidity
4425;DHT22;2225;53.568;13.266;2024-02-23T00:02:22;15.10;99.90
4425;DHT22;2225;53.568;13.266;2024-02-23T00:04:49;15.10;99.90
4425;DHT22;2225;53.568;13.266;2024-02-23T00:07:16;15.10;99.90
4425;DHT22;2225;53.568;13.266;2024-02-23T00:09:43;15.10;99.80
4425;DHT22;2225;53.568;13.266;2024-02-23T00:12:10;15.10;99.70
4425;DHT22;2225;53.568;13.266;2024-02-23T00:14:37;15.10;99.60
4425;DHT22;2225;53.568;13.266;2024-02-23T00:17:04;15.10;99.60
4425;DHT22;2225;53.568;13.266;2024-02-23T00:19:31;15.10;99.60
4425;DHT22;2225;53.568;13.266;2024-02-23T00:21:59;15.10;99.60
4425;DHT22;2225;53.568;13.266;2024-02-23T00:24:26;15.10;99.50
4425;DHT22;2225;53.568;13.266;2024-02-23T00:26:54;15.10;99.40
4425;DHT22;2225;53.568;13.266;2024-02-23T00:29:21;15.10;99.40
4425;DHT22;2225;53.568;13.266;2024-02-23T00:31:49;15.00;99.40
4425;DHT22;2225;53.568;13.266;2024-02-23T00:34:16;15.00;99.40
4425;DHT22;2225;53.568;13.266;2024-02-23T00:36:43;15.00;99.30
4425;DHT22;2225;53.568;13.266;2024-02-23T00:39:11;14.90;99.30
4425;DHT22;2225;53.568;13.266;2024-02-23T00:41:38;14.90;99.30
4425;DHT22;2225;53.568;13.266;2024-02-23T00:44:05;14.90;99.30
4425;DHT22;2225;53.568;13.266;2024-02-23T00:46:33;14.80;99.20
4425;DHT22;2225;53.568;13.266;2024-02-23T00:49:00;14.80;99.20
4425;DHT22;2225;53.568;13.266;2024-02-23T00:51:27;14.80;99.20
4425;DHT22;2225;53.568;13.266;2024-02-23T00:53:54;14.80;99.20
4425;DHT22;2225;53.568;13.266;2024-02-23T00:56:21;14.70;99.20
4425;DHT22;2225;53.568;13.266;2024-02-23T00:58:58;14.70;99.20
4425;DHT22;2225;53.568;13.266;2024-02-23T01:01:25;14.70;99.20
4425;DHT22;2225;53.568;13.266;2024-02-23T01:03:53;14.70;99.10
4425;DHT22;2225;53.568;13.266;2024-02-23T01:06:20;14.70;99.10
4425;DHT22;2225;53.568;13.266;2024-02-23T01:08:47;14.60;99.10
4425;DHT22;2225;53.568;13.266;2024-02-23T01:11:14;14.60;99.10
4425;DHT22;2225;53.568;13.266;2024-02-23T01:13:41;14.60;99.10
4425;DHT22;2225;53.568;13.266;2024-02-23T01:16:08;14.60;99.10
4425;DHT22;2225;53.568;13.266;2024-02-23T01:18:35;14.60;99.00
4425;DHT22;2225;53.568;13.266;2024-02-23T01:21:03;14.50;99.00
4425;DHT22;2225;53.568;13.266;2024-02-23T01:23:29;14.50;99.00
4425;DHT22;2225;53.568;13.266;2024-02-23T01:25:56;14.50;99.00
4425;DHT22;2225;53.568;13.266;2024-02-23T01:28:25;14.50;98.90
4425;DHT22;2225;53.568;13.266;2024-02-23T01:30:52;14.50;98.80
4425;DHT22;2225;53.568;13.266;2024-02-23T01:33:19;14.50;98.50
4425;DHT22;2225;53.568;13.266;2024-02-23T01:35:46;14.50;98.50
4425;DHT22;2225;53.568;13.266;2024-02-23T01:38:13;14.50;98.40
4425;DHT22;2225;53.568;13.266;2024-02-23T01:40:47;14.50;98.40
4425;DHT22;2225;53.568;13.266;2024-02-23T01:43:14;14.50;98.50
4425;DHT22;2225;53.568;13.266;2024-02-23T01:45:41;14.50;98.50
4425;DHT22;2225;53.568;13.266;2024-02-23T01:48:08;14.40;98.40
4425;DHT22;2225;53.568;13.266;2024-02-23T01:50:36;14.40;98.20
4425;DHT22;2225;53.568;13.266;2024-02-23T01:53:04;14.40;98.00
4425;DHT22;2225;53.568;13.266;2024-02-23T01:55:31;14.50;97.40
4425;DHT22;2225;53.568;13.266;2024-02-23T01:58:04;14.40;96.90
4425;DHT22;2225;53.568;13.266;2024-02-23T02:00:35;14.40;96.40
4425;DHT22;2225;53.568;13.266;2024-02-23T02:03:04;14.30;94.20
4425;DHT22;2225;53.568;13.266;2024-02-23T02:05:37;14.30;94.00
4425;DHT22;2225;53.568;13.266;2024-02-23T02:08:04;14.20;91.90
4425;DHT22;2225;53.568;13.266;2024-02-23T02:10:31;14.10;91.40
4425;DHT22;2225;53.568;13.266;2024-02-23T02:13:05;14.10;91.20
4425;DHT22;2225;53.568;13.266;2024-02-23T02:15:32;14.00;90.90
4425;DHT22;2225;53.568;13.266;2024-02-23T02:17:59;14.00;91.50
4425;DHT22;2225;53.568;13.266;2024-02-23T02:20:27;14.00;91.50
4425;DHT22;2225;53.568;13.266;2024-02-23T02:22:59;14.00;91.80
4425;DHT22;2225;53.568;13.266;2024-02-23T02:25:26;14.00;91.20
4425;DHT22;2225;53.568;13.266;2024-02-23T02:27:53;14.00;91.10
4425;DHT22;2225;53.568;13.266;2024-02-23T02:30:20;13.80;90.10
4425;DHT22;2225;53.568;13.266;2024-02-23T02:32:47;13.80;90.10
4425;DHT22;2225;53.568;13.266;2024-02-23T02:35:14;13.70;90.30
4425;DHT22;2225;53.568;13.266;2024-02-23T02:37:42;13.60;88.70
4425;DHT22;2225;53.568;13.266;2024-02-23T02:40:09;13.50;88.30
4425;DHT22;2225;53.568;13.266;2024-02-23T02:42:36;13.40;88.70
4425;DHT22;2225;53.568;13.266;2024-02-23T02:45:03;13.20;86.60
4425;DHT22;2225;53.568;13.266;2024-02-23T02:47:30;13.10;87.80
4425;DHT22;2225;53.568;13.266;2024-02-23T02:49:57;13.10;87.90
4425;DHT22;2225;53.568;13.266;2024-02-23T02:52:24;13.00;86.40
4425;DHT22;2225;53.568;13.266;2024-02-23T02:54:51;12.90;85.00
4425;DHT22;2225;53.568;13.266;2024-02-23T02:57:18;12.80;85.90
4425;DHT22;2225;53.568;13.266;2024-02-23T02:59:45;12.80;86.40
4425;DHT22;2225;53.568;13.266;2024-02-23T03:02:12;12.70;85.90
4425;DHT22;2225;53.568;13.266;2024-02-23T03:04:47;12.70;86.30
4425;DHT22;2225;53.568;13.266;2024-02-23T03:07:15;12.60;86.50
4425;DHT22;2225;53.568;13.266;2024-02-23T03:09:43;12.60;87.40
4425;DHT22;2225;53.568;13.266;2024-02-23T03:12:10;12.50;86.70
4425;DHT22;2225;53.568;13.266;2024-02-23T03:14:37;12.50;86.60
4425;DHT22;2225;53.568;13.266;2024-02-23T03:17:07;12.50;86.90
4425;DHT22;2225;53.568;13.266;2024-02-23T03:19:36;12.50;86.20
4425;DHT22;2225;53.568;13.266;2024-02-23T03:22:04;12.40;86.20
4425;DHT22;2225;53.568;13.266;2024-02-23T03:24:31;12.30;85.30
4425;DHT22;2225;53.568;13.266;2024-02-23T03:26:57;12.30;85.60
4425;DHT22;2225;53.568;13.266;2024-02-23T03:29:25;12.20;84.10
4425;DHT22;2225;53.568;13.266;2024-02-23T03:31:56;12.20;84.90
4425;DHT22;2225;53.568;13.266;2024-02-23T03:34:23;12.20;84.30
4425;DHT22;2225;53.568;13.266;2024-02-23T03:36:50;12.20;84.20
4425;DHT22;2225;53.568;13.266;2024-02-23T03:39:17;12.20;84.20
4425;DHT22;2225;53.568;13.266;2024-02-23T03:41:44;12.20;83.90
4425;DHT22;2225;53.568;13.266;2024-02-23T03:44:11;12.20;83.70
4425;DHT22;2225;53.568;13.266;2024-02-23T03:46:38;12.20;84.00
4425;DHT22;2225;53.568;13.266;2024-02-23T03:49:04;12.20;84.40
4425;DHT22;2225;53.568;13.266;2024-02-23T03:51:31;12.30;84.40
4425;DHT22;2225;53.568;13.266;2024-02-23T03:54:03;12.30;83.80
4425;DHT22;2225;53.568;13.266;2024-02-23T03:56:30;12.30;84.30
4425;DHT22;2225;53.568;13.266;2024-02-23T03:59:04;12.30;84.90
4425;DHT22;2225;53.568;13.266;2024-02-23T04:01:31;12.20;84.60
4425;DHT22;2225;53.568;13.266;2024-02-23T04:03:58;12.20;85.00
4425;DHT22;2225;53.568;13.266;2024-02-23T04:06:25;12.20;85.30
4425;DHT22;2225;53.568;13.266;2024-02-23T04:08:52;12.20;85.80
4425;DHT22;2225;53.568;13.266;2024-02-23T04:11:19;12.20;85.50
4425;DHT22;2225;53.568;13.266;2024-02-23T04:13:46;12.20;86.00
4425;DHT22;2225;53.568;13.266;2024-02-23T04:16:17;12.20;85.70
4425;DHT22;2225;53.568;13.266;2024-02-23T04:18:44;12.20;86.00
4425;DHT22;2225;53.568;13.266;2024-02-23T04:21:11;12.20;86.10
4425;DHT22;2225;53.568;13.266;2024-02-23T04:23:38;12.20;86.20
4425;DHT22;2225;53.568;13.266;2024-02-23T04:26:05;12.20;86.20
4425;DHT22;2225;53.568;13.266;2024-02-23T04:28:32;12.20;86.10
4425;DHT22;2225;53.568;13.266;2024-02-23T04:31:00;12.10;86.20
4425;DHT22;2225;53.568;13.266;2024-02-23T04:33:27;12.10;86.40
4425;DHT22;2225;53.568;13.266;2024-02-23T04:35:54;12.10;86.70
4425;DHT22;2225;53.568;13.266;2024-02-23T04:38:21;12.10;86.40
4425;DHT22;2225;53.568;13.266;2024-02-23T04:40:48;12.00;86.10
4425;DHT22;2225;53.568;13.266;2024-02-23T04:43:15;11.90;86.20
4425;DHT22;2225;53.568;13.266;2024-02-23T04:45:42;12.00;88.80
4425;DHT22;2225;53.568;13.266;2024-02-23T04:48:09;12.00;90.70
4425;DHT22;2225;53.568;13.266;2024-02-23T04:50:36;11.90;92.70
4425;DHT22;2225;53.568;13.266;2024-02-23T04:53:03;11.90;93.40
4425;DHT22;2225;53.568;13.266;2024-02-23T04:55:30;11.80;93.30
4425;DHT22;2225;53.568;13.266;2024-02-23T04:57:57;11.80;93.60
4425;DHT22;2225;53.568;13.266;2024-02-23T05:00:24;11.70;93.60
4425;DHT22;2225;53.568;13.266;2024-02-23T05:02:55;11.60;93.70
4425;DHT22;2225;53.568;13.266;2024-02-23T05:05:22;11.50;93.60
4425;DHT22;2225;53.568;13.266;2024-02-23T05:07:49;11.40;93.70
4425;DHT22;2225;53.568;13.266;2024-02-23T05:10:16;11.30;93.70
4425;DHT22;2225;53.568;13.266;2024-02-23T05:12:43;11.20;93.90
4425;DHT22;2225;53.568;13.266;2024-02-23T05:15:11;11.10;94.00
4425;DHT22;2225;53.568;13.266;2024-02-23T05:17:38;11.00;94.20
4425;DHT22;2225;53.568;13.266;2024-02-23T05:20:06;10.90;94.40
4425;DHT22;2225;53.568;13.266;2024-02-23T05:22:34;10.80;94.60
4425;DHT22;2225;53.568;13.266;2024-02-23T05:25:01;10.70;94.70
4425;DHT22;2225;53.568;13.266;2024-02-23T05:27:28;10.60;94.90
4425;DHT22;2225;53.568;13.266;2024-02-23T05:29:55;10.60;95.00
4425;DHT22;2225;53.568;13.266;2024-02-23T05:32:22;10.50;95.00
4425;DHT22;2225;53.568;13.266;2024-02-23T05:34:49;10.50;95.10
4425;DHT22;2225;53.568;13.266;2024-02-23T05:37:19;10.40;95.20
4425;DHT22;2225;53.568;13.266;2024-02-23T05:39:46;10.40;95.20
4425;DHT22;2225;53.568;13.266;2024-02-23T05:42:13;10.30;95.20
4425;DHT22;2225;53.568;13.266;2024-02-23T05:44:43;10.20;95.20
4425;DHT22;2225;53.568;13.266;2024-02-23T05:47:11;10.10;95.20
4425;DHT22;2225;53.568;13.266;2024-02-23T05:49:40;10.10;95.20
4425;DHT22;2225;53.568;13.266;2024-02-23T05:52:07;10.10;95.30
4425;DHT22;2225;53.568;13.266;2024-02-23T05:54:34;10.00;95.40
4425;DHT22;2225;53.568;13.266;2024-02-23T05:57:01;10.10;95.40
4425;DHT22;2225;53.568;13.266;2024-02-23T05:59:29;10.10;95.50
4425;DHT22;2225;53.568;13.266;2024-02-23T06:01:56;10.10;95.50
4425;DHT22;2225;53.568;13.266;2024-02-23T06:04:24;10.20;95.50
4425;DHT22;2225;53.568;13.266;2024-02-23T06:06:51;10.20;95.40
4425;DHT22;2225;53.568;13.266;2024-02-23T06:09:18;10.20;95.30
4425;DHT22;2225;53.568;13.266;2024-02-23T06:11:46;10.20;95.20
4425;DHT22;2225;53.568;13.266;2024-02-23T06:14:13;10.20;95.10
4425;DHT22;2225;53.568;13.266;2024-02-23T06:16:40;10.20;95.10
4425;DHT22;2225;53.568;13.266;2024-02-23T06:19:08;10.20;95.10
4425;DHT22;2225;53.568;13.266;2024-02-23T06:21:36;10.30;94.90
4425;DHT22;2225;53.568;13.266;2024-02-23T06:24:03;10.30;94.60
4425;DHT22;2225;53.568;13.266;2024-02-23T06:26:31;10.30;94.40
4425;DHT22;2225;53.568;13.266;2024-02-23T06:28:58;10.30;94.30
4425;DHT22;2225;53.568;13.266;2024-02-23T06:31:26;10.30;93.90
4425;DHT22;2225;53.568;13.266;2024-02-23T06:33:53;10.30;94.00
4425;DHT22;2225;53.568;13.266;2024-02-23T06:36:20;10.20;93.70
4425;DHT22;2225;53.568;13.266;2024-02-23T06:38:47;10.20;93.90
4425;DHT22;2225;53.568;13.266;2024-02-23T06:41:14;10.20;93.80
4425;DHT22;2225;53.568;13.266;2024-02-23T06:43:41;10.20;93.90
4425;DHT22;2225;53.568;13.266;2024-02-23T06:46:08;10.20;93.80
4425;DHT22;2225;53.568;13.266;2024-02-23T06:48:36;10.20;94.40
4425;DHT22;2225;53.568;13.266;2024-02-23T06:51:04;10.20;94.10
4425;DHT22;2225;53.568;13.266;2024-02-23T06:53:32;10.20;94.10
4425;DHT22;2225;53.568;13.266;2024-02-23T06:55:59;10.20;94.00
4425;DHT22;2225;53.568;13.266;2024-02-23T06:58:27;10.20;93.60
4425;DHT22;2225;53.568;13.266;2024-02-23T07:00:54;10.20;93.50
4425;DHT22;2225;53.568;13.266;2024-02-23T07:03:22;10.30;93.60
4425;DHT22;2225;53.568;13.266;2024-02-23T07:05:49;10.20;93.10
4425;DHT22;2225;53.568;13.266;2024-02-23T07:08:17;10.20;93.00
4425;DHT22;2225;53.568;13.266;2024-02-23T07:10:44;10.30;93.20
4425;DHT22;2225;53.568;13.266;2024-02-23T07:13:12;10.30;92.80
4425;DHT22;2225;53.568;13.266;2024-02-23T07:15:39;10.30;92.70
4425;DHT22;2225;53.568;13.266;2024-02-23T07:18:06;10.30;92.40
4425;DHT22;2225;53.568;13.266;2024-02-23T07:20:36;10.30;92.50
4425;DHT22;2225;53.568;13.266;2024-02-23T07:23:04;10.30;92.70
4425;DHT22;2225;53.568;13.266;2024-02-23T07:25:31;10.30;92.50
4425;DHT22;2225;53.568;13.266;2024-02-23T07:27:58;10.30;92.40
4425;DHT22;2225;53.568;13.266;2024-02-23T07:30:25;10.40;92.30
4425;DHT22;2225;53.568;13.266;2024-02-23T07:32:52;10.40;92.30
4425;DHT22;2225;53.568;13.266;2024-02-23T07:35:20;10.30;92.00
4425;DHT22;2225;53.568;13.266;2024-02-23T07:37:47;10.40;92.00
4425;DHT22;2225;53.568;13.266;2024-02-23T07:40:14;10.40;91.80
4425;DHT22;2225;53.568;13.266;2024-02-23T07:42:45;10.40;91.70
4425;DHT22;2225;53.568;13.266;2024-02-23T07:45:12;10.40;91.70
4425;DHT22;2225;53.568;13.266;2024-02-23T07:47:39;10.40;91.20
4425;DHT22;2225;53.568;13.266;2024-02-23T07:50:06;10.40;91.50
4425;DHT22;2225;53.568;13.266;2024-02-23T07:52:34;10.40;91.10
4425;DHT22;2225;53.568;13.266;2024-02-23T07:55:01;10.30;91.10
4425;DHT22;2225;53.568;13.266;2024-02-23T07:57:32;10.40;91.10
4425;DHT22;2225;53.568;13.266;2024-02-23T07:59:59;10.40;91.10
4425;DHT22;2225;53.568;13.266;2024-02-23T08:02:26;10.40;90.90
4425;DHT22;2225;53.568;13.266;2024-02-23T08:04:53;10.40;91.10
4425;DHT22;2225;53.568;13.266;2024-02-23T08:07:20;10.40;91.20
4425;DHT22;2225;53.568;13.266;2024-02-23T08:09:49;10.40;91.10
4425;DHT22;2225;53.568;13.266;2024-02-23T08:12:16;10.40;91.00
4425;DHT22;2225;53.568;13.266;2024-02-23T08:14:43;10.40;91.00
4425;DHT22;2225;53.568;13.266;2024-02-23T08:17:12;10.50;91.10
4425;DHT22;2225;53.568;13.266;2024-02-23T08:19:39;10.50;91.10
4425;DHT22;2225;53.568;13.266;2024-02-23T08:22:06;10.50;91.20
4425;DHT22;2225;53.568;13.266;2024-02-23T08:24:33;10.60;91.00
4425;DHT22;2225;53.568;13.266;2024-02-23T08:27:00;10.60;91.00
4425;DHT22;2225;53.568;13.266;2024-02-23T08:29:27;10.60;90.90
4425;DHT22;2225;53.568;13.266;2024-02-23T08:31:54;10.60;90.60
4425;DHT22;2225;53.568;13.266;2024-02-23T08:34:21;10.60;90.90
4425;DHT22;2225;53.568;13.266;2024-02-23T08:36:48;10.60;90.70
4425;DHT22;2225;53.568;13.266;2024-02-23T08:39:15;10.60;90.50
4425;DHT22;2225;53.568;13.266;2024-02-23T08:41:42;10.60;90.60
4425;DHT22;2225;53.568;13.266;2024-02-23T08:44:09;10.60;90.70
4425;DHT22;2225;53.568;13.266;2024-02-23T08:46:36;10.60;90.70
4425;DHT22;2225;53.568;13.266;2024-02-23T08:49:05;10.60;90.70
4425;DHT22;2225;53.568;13.266;2024-02-23T08:51:33;10.60;90.60
4425;DHT22;2225;53.568;13.266;2024-02-23T08:53:59;10.60;90.80
4425;DHT22;2225;53.568;13.266;2024-02-23T08:56:31;10.60;90.70
4425;DHT22;2225;53.568;13.266;2024-02-23T08:58:58;10.60;90.90
4425;DHT22;2225;53.568;13.266;2024-02-23T09:01:25;10.70;90.60
4425;DHT22;2225;53.568;13.266;2024-02-23T09:03:52;10.70;90.50
4425;DHT22;2225;53.568;13.266;2024-02-23T09:06:21;10.70;90.50
4425;DHT22;2225;53.568;13.266;2024-02-23T09:08:48;10.70;90.40
4425;DHT22;2225;53.568;13.266;2024-02-23T09:11:15;10.70;90.70
4425;DHT22;2225;53.568;13.266;2024-02-23T09:13:42;10.80;90.40
4425;DHT22;2225;53.568;13.266;2024-02-23T09:16:09;10.80;90.70
4425;DHT22;2225;53.568;13.266;2024-02-23T09:18:36;10.80;90.80
4425;DHT22;2225;53.568;13.266;2024-02-23T09:21:04;10.80;90.60
4425;DHT22;2225;53.568;13.266;2024-02-23T09:23:31;10.90;90.50
4425;DHT22;2225;53.568;13.266;2024-02-23T09:25:59;11.00;90.70
4425;DHT22;2225;53.568;13.266;2024-02-23T09:28:27;11.00;89.60
4425;DHT22;2225;53.568;13.266;2024-02-23T09:30:56;11.00;89.50
4425;DHT22;2225;53.568;13.266;2024-02-23T09:33:24;11.10;89.40
4425;DHT22;2225;53.568;13.266;2024-02-23T09:35:51;11.20;88.50
4425;DHT22;2225;53.568;13.266;2024-02-23T09:38:18;11.30;89.20
4425;DHT22;2225;53.568;13.266;2024-02-23T09:40:46;11.40;87.50
4425;DHT22;2225;53.568;13.266;2024-02-23T09:43:14;11.50;87.70
4425;DHT22;2225;53.568;13.266;2024-02-23T09:45:42;11.60;88.30
4425;DHT22;2225;53.568;13.266;2024-02-23T09:48:10;11.60;86.90
4425;DHT22;2225;53.568;13.266;2024-02-23T09:50:37;11.70;85.40
4425;DHT22;2225;53.568;13.266;2024-02-23T09:53:07;11.70;85.10
4425;DHT22;2225;53.568;13.266;2024-02-23T09:55:37;11.70;84.70
4425;DHT22;2225;53.568;13.266;2024-02-23T09:58:06;11.70;83.70
4425;DHT22;2225;53.568;13.266;2024-02-23T10:00:36;11.70;83.70
4425;DHT22;2225;53.568;13.266;2024-02-23T10:03:05;11.80;84.10
4425;DHT22;2225;53.568;13.266;2024-02-23T10:05:32;11.80;84.30
4425;DHT22;2225;53.568;13.266;2024-02-23T10:08:04;11.90;84.50
4425;DHT22;2225;53.568;13.266;2024-02-23T10:10:33;12.00;85.50
4425;DHT22;2225;53.568;13.266;2024-02-23T10:13:01;12.00;83.60
4425;DHT22;2225;53.568;13.266;2024-02-23T10:15:29;12.00;82.60
4425;DHT22;2225;53.568;13.266;2024-02-23T10:17:57;12.00;82.60
4425;DHT22;2225;53.568;13.266;2024-02-23T10:20:24;12.10;83.10
4425;DHT22;2225;53.568;13.266;2024-02-23T10:22:51;12.10;82.10
4425;DHT22;2225;53.568;13.266;2024-02-23T10:25:20;12.10;81.70
4425;DHT22;2225;53.568;13.266;2024-02-23T10:27:48;12.10;81.10
4425;DHT22;2225;53.568;13.266;2024-02-23T10:30:15;12.10;81.40
4425;DHT22;2225;53.568;13.266;2024-02-23T10:32:42;12.10;80.90
4425;DHT22;2225;53.568;13.266;2024-02-23T10:35:13;12.20;81.30
4425;DHT22;2225;53.568;13.266;2024-02-23T10:37:43;12.20;82.10
4425;DHT22;2225;53.568;13.266;2024-02-23T10:40:12;12.30;80.40
4425;DHT22;2225;53.568;13.266;2024-02-23T10:42:41;12.30;80.40
4425;DHT22;2225;53.568;13.266;2024-02-23T10:45:18;12.40;80.80
4425;DHT22;2225;53.568;13.266;2024-02-23T10:47:46;12.40;81.50
4425;DHT22;2225;53.568;13.266;2024-02-23T10:50:14;12.50;80.00
4425;DHT22;2225;53.568;13.266;2024-02-23T10:52:42;12.50;79.70
4425;DHT22;2225;53.568;13.266;2024-02-23T10:55:09;12.60;81.10
4425;DHT22;2225;53.568;13.266;2024-02-23T10:57:37;12.70;79.60
4425;DHT22;2225;53.568;13.266;2024-02-23T11:00:07;12.70;78.70
4425;DHT22;2225;53.568;13.266;2024-02-23T11:02:43;12.70;78.40
4425;DHT22;2225;53.568;13.266;2024-02-23T11:05:14;12.80;78.50
4425;DHT22;2225;53.568;13.266;2024-02-23T11:07:42;12.80;79.40
4425;DHT22;2225;53.568;13.266;2024-02-23T11:10:13;12.80;78.80
4425;DHT22;2225;53.568;13.266;2024-02-23T11:12:40;12.90;79.50
4425;DHT22;2225;53.568;13.266;2024-02-23T11:15:08;13.00;79.10
4425;DHT22;2225;53.568;13.266;2024-02-23T11:17:36;13.10;79.30
4425;DHT22;2225;53.568;13.266;2024-02-23T11:20:06;13.20;79.20
4425;DHT22;2225;53.568;13.266;2024-02-23T11:22:35;13.30;79.60
4425;DHT22;2225;53.568;13.266;2024-02-23T11:25:06;13.40;79.10
4425;DHT22;2225;53.568;13.266;2024-02-23T11:27:38;13.50;79.00
4425;DHT22;2225;53.568;13.266;2024-02-23T11:30:09;13.60;78.40
4425;DHT22;2225;53.568;13.266;2024-02-23T11:32:46;13.60;78.40
4425;DHT22;2225;53.568;13.266;2024-02-23T11:35:16;13.60;78.00
4425;DHT22;2225;53.568;13.266;2024-02-23T11:37:53;13.70;77.70
4425;DHT22;2225;53.568;13.266;2024-02-23T11:40:30;13.60;75.00
4425;DHT22;2225;53.568;13.266;2024-02-23T11:42:57;13.60;75.80
4425;DHT22;2225;53.568;13.266;2024-02-23T11:45:28;13.70;75.90
4425;DHT22;2225;53.568;13.266;2024-02-23T11:47:56;13.70;76.80
4425;DHT22;2225;53.568;13.266;2024-02-23T11:50:23;13.70;77.50
4425;DHT22;2225;53.568;13.266;2024-02-23T11:52:50;13.80;76.50
4425;DHT22;2225;53.568;13.266;2024-02-23T11:55:21;13.80;75.40
4425;DHT22;2225;53.568;13.266;2024-02-23T11:57:50;13.80;74.20
4425;DHT22;2225;53.568;13.266;2024-02-23T12:00:30;13.80;74.30
4425;DHT22;2225;53.568;13.266;2024-02-23T12:02:58;13.90;75.70
4425;DHT22;2225;53.568;13.266;2024-02-23T12:05:25;13.90;76.00
4425;DHT22;2225;53.568;13.266;2024-02-23T12:07:52;13.90;76.20
4425;DHT22;2225;53.568;13.266;2024-02-23T12:10:20;14.00;76.30
4425;DHT22;2225;53.568;13.266;2024-02-23T12:12:47;14.00;76.10
4425;DHT22;2225;53.568;13.266;2024-02-23T12:15:14;14.10;75.80
4425;DHT22;2225;53.568;13.266;2024-02-23T12:17:47;14.20;75.70
4425;DHT22;2225;53.568;13.266;2024-02-23T12:20:15;14.10;74.10
4425;DHT22;2225;53.568;13.266;2024-02-23T12:22:42;14.10;75.30
4425;DHT22;2225;53.568;13.266;2024-02-23T12:25:12;14.20;75.00
4425;DHT22;2225;53.568;13.266;2024-02-23T12:27:39;14.20;74.70
4425;DHT22;2225;53.568;13.266;2024-02-23T12:30:13;14.20;74.70
4425;DHT22;2225;53.568;13.266;2024-02-23T12:32:41;14.10;73.50
4425;DHT22;2225;53.568;13.266;2024-02-23T12:35:11;14.10;74.90
4425;DHT22;2225;53.568;13.266;2024-02-23T12:37:39;14.20;73.30
4425;DHT22;2225;53.568;13.266;2024-02-23T12:40:10;14.20;73.30
4425;DHT22;2225;53.568;13.266;2024-02-23T12:42:38;14.20;73.00
4425;DHT22;2225;53.568;13.266;2024-02-23T12:45:05;14.30;73.90
4425;DHT22;2225;53.568;13.266;2024-02-23T12:47:32;14.30;74.10
4425;DHT22;2225;53.568;13.266;2024-02-23T12:49:59;14.30;73.90
4425;DHT22;2225;53.568;13.266;2024-02-23T12:52:26;14.30;75.00
4425;DHT22;2225;53.568;13.266;2024-02-23T12:54:53;14.30;74.80
4425;DHT22;2225;53.568;13.266;2024-02-23T12:57:20;14.30;74.90
4425;DHT22;2225;53.568;13.266;2024-02-23T12:59:47;14.30;73.60
4425;DHT22;2225;53.568;13.266;2024-02-23T13:02:14;14.30;72.60
4425;DHT22;2225;53.568;13.266;2024-02-23T13:04:41;14.30;72.00
4425;DHT22;2225;53.568;13.266;2024-02-23T13:07:12;14.20;73.00
4425;DHT22;2225;53.568;13.266;2024-02-23T13:09:39;14.20;73.40
4425;DHT22;2225;53.568;13.266;2024-02-23T13:12:07;14.20;72.70
4425;DHT22;2225;53.568;13.266;2024-02-23T13:14:35;14.20;72.00
4425;DHT22;2225;53.568;13.266;2024-02-23T13:17:02;14.30;71.70
4425;DHT22;2225;53.568;13.266;2024-02-23T13:19:30;14.30;72.30
4425;DHT22;2225;53.568;13.266;2024-02-23T13:21:57;14.20;72.20
4425;DHT22;2225;53.568;13.266;2024-02-23T13:24:27;14.30;72.30
4425;DHT22;2225;53.568;13.266;2024-02-23T13:26:54;14.30;72.70
4425;DHT22;2225;53.568;13.266;2024-02-23T13:29:21;14.30;72.10
4425;DHT22;2225;53.568;13.266;2024-02-23T13:31:48;14.30;73.00
4425;DHT22;2225;53.568;13.266;2024-02-23T13:34:15;14.40;73.00
4425;DHT22;2225;53.568;13.266;2024-02-23T13:36:44;14.40;72.30
4425;DHT22;2225;53.568;13.266;2024-02-23T13:39:11;14.40;71.20
4425;DHT22;2225;53.568;13.266;2024-02-23T13:41:38;14.40;71.10
4425;DHT22;2225;53.568;13.266;2024-02-23T13:44:05;14.40;70.90
4425;DHT22;2225;53.568;13.266;2024-02-23T13:46:37;14.40;70.40
4425;DHT22;2225;53.568;13.266;2024-02-23T13:49:06;14.40;70.00
4425;DHT22;2225;53.568;13.266;2024-02-23T13:51:34;14.30;70.70
4425;DHT22;2225;53.568;13.266;2024-02-23T13:54:01;14.20;71.20
4425;DHT22;2225;53.568;13.266;2024-02-23T13:56:29;14.20;71.90
4425;DHT22;2225;53.568;13.266;2024-02-23T13:58:56;14.20;72.80
4425;DHT22;2225;53.568;13.266;2024-02-23T14:01:23;14.20;73.00
4425;DHT22;2225;53.568;13.266;2024-02-23T14:03:51;14.20;73.50
4425;DHT22;2225;53.568;13.266;2024-02-23T14:06:18;14.20;73.90
4425;DHT22;2225;53.568;13.266;2024-02-23T14:08:45;14.20;74.30
4425;DHT22;2225;53.568;13.266;2024-02-23T14:11:14;14.20;74.60
4425;DHT22;2225;53.568;13.266;2024-02-23T14:13:41;14.20;75.00
4425;DHT22;2225;53.568;13.266;2024-02-23T14:16:08;14.20;74.90
4425;DHT22;2225;53.568;13.266;2024-02-23T14:18:35;14.20;74.30
4425;DHT22;2225;53.568;13.266;2024-02-23T14:21:04;14.20;74.50
4425;DHT22;2225;53.568;13.266;2024-02-23T14:23:31;14.10;74.40
4425;DHT22;2225;53.568;13.266;2024-02-23T14:26:00;14.10;74.90
4425;DHT22;2225;53.568;13.266;2024-02-23T14:28:27;14.10;75.10
4425;DHT22;2225;53.568;13.266;2024-02-23T14:30:54;14.10;75.50
4425;DHT22;2225;53.568;13.266;2024-02-23T14:33:21;14.10;74.90
4425;DHT22;2225;53.568;13.266;2024-02-23T14:35:48;14.10;75.00
4425;DHT22;2225;53.568;13.266;2024-02-23T14:38:16;14.10;75.30
4425;DHT22;2225;53.568;13.266;2024-02-23T14:40:44;14.10;75.70
4425;DHT22;2225;53.568;13.266;2024-02-23T14:43:11;14.00;76.10
4425;DHT22;2225;53.568;13.266;2024-02-23T14:45:38;14.00;75.70
4425;DHT22;2225;53.568;13.266;2024-02-23T14:48:05;14.00;75.70
4425;DHT22;2225;53.568;13.266;2024-02-23T14:50:33;14.00;75.40
4425;DHT22;2225;53.568;13.266;2024-02-23T14:53:00;14.00;75.70
4425;DHT22;2225;53.568;13.266;2024-02-23T14:55:27;13.90;76.00
4425;DHT22;2225;53.568;13.266;2024-02-23T14:57:54;14.00;76.10
4425;DHT22;2225;53.568;13.266;2024-02-23T15:00:21;13.90;75.50
4425;DHT22;2225;53.568;13.266;2024-02-23T15:02:48;13.90;75.90
4425;DHT22;2225;53.568;13.266;2024-02-23T15:05:15;13.80;75.90
4425;DHT22;2225;53.568;13.266;2024-02-23T15:07:44;13.80;75.70
4425;DHT22;2225;53.568;13.266;2024-02-23T15:10:11;13.80;75.70
4425;DHT22;2225;53.568;13.266;2024-02-23T15:12:38;13.70;75.60
4425;DHT22;2225;53.568;13.266;2024-02-23T15:15:05;13.70;76.00
4425;DHT22;2225;53.568;13.266;2024-02-23T15:17:33;13.70;76.30
4425;DHT22;2225;53.568;13.266;2024-02-23T15:20:01;13.70;76.30
4425;DHT22;2225;53.568;13.266;2024-02-23T15:22:29;13.70;75.90
4425;DHT22;2225;53.568;13.266;2024-02-23T15:24:56;13.60;76.40
4425;DHT22;2225;53.568;13.266;2024-02-23T15:27:26;13.60;76.70
4425;DHT22;2225;53.568;13.266;2024-02-23T15:29:53;13.60;76.60
4425;DHT22;2225;53.568;13.266;2024-02-23T15:32:20;13.60;77.00
4425;DHT22;2225;53.568;13.266;2024-02-23T15:34:47;13.50;77.20
4425;DHT22;2225;53.568;13.266;2024-02-23T15:37:14;13.50;76.90
4425;DHT22;2225;53.568;13.266;2024-02-23T15:39:41;13.40;77.10
4425;DHT22;2225;53.568;13.266;2024-02-23T15:42:08;13.50;77.10
4425;DHT22;2225;53.568;13.266;2024-02-23T15:44:35;13.40;76.90
4425;DHT22;2225;53.568;13.266;2024-02-23T15:47:02;13.40;77.10
4425;DHT22;2225;53.568;13.266;2024-02-23T15:49:29;13.30;77.00